KDCU/DCU METAR and TAF weather

Enter ICAO airport designator
Station Type Date Time Source
KDCU METAR 2021/01/27 12:53 UTC NOAA

KDCU 271253Z AUTO 03004KT 10SM FEW120 06/03 A3004 RMK AO2 SLP170 T00610028


Station Type Date Time Source
KDCU Decoded METAR 2021/01/27 12:53 UTC NOAA

PRYOR FIELD, AL, United States (KDCU) 34-39N 086-57W 176M
Jan 27, 2021 - 07:53 AM EST / 2021.01.27 1253 UTC
Wind: from the NNE (030 degrees) at 5 MPH (4 KT):0
Visibility: 10 mile(s):0
Sky conditions: mostly clear
Temperature: 43.0 F (6.1 C)
Dew Point: 37.0 F (2.8 C)
Relative Humidity: 79%
Pressure (altimeter): 30.04 in. Hg (1017 hPa)
ob: KDCU 271253Z AUTO 03004KT 10SM FEW120 06/03 A3004 RMK AO2 SLP170 T00610028
cycle: 13

Station Type Date Time Source
KDCU TAF UTC NOAA

Error!

Example: see airport list